createdAt,value
2019-06-20T00:01:53.943Z,12.93
2019-06-20T00:06:17.791Z,14.63
2019-06-20T00:10:41.882Z,19.73
2019-06-20T00:15:06.574Z,15.60
2019-06-20T00:19:31.258Z,15.33
2019-06-20T00:23:55.405Z,17.07
2019-06-20T00:28:19.316Z,20.30
2019-06-20T00:32:43.897Z,15.27
2019-06-20T00:37:08.332Z,17.50
2019-06-20T00:41:32.285Z,18.93
2019-06-20T00:45:56.093Z,18.25
2019-06-20T00:50:20.158Z,19.10
2019-06-20T00:54:44.269Z,19.73
2019-06-20T00:59:08.056Z,19.17
2019-06-20T01:03:32.917Z,18.33
2019-06-20T01:07:56.730Z,18.60
2019-06-20T01:12:21.176Z,17.50
2019-06-20T01:16:45.533Z,21.13
2019-06-20T01:21:09.724Z,22.83
2019-06-20T01:25:41.507Z,20.03
2019-06-20T01:30:07.657Z,21.73
2019-06-20T01:34:31.933Z,22.17
2019-06-20T01:38:55.997Z,26.97
2019-06-20T01:43:19.804Z,21.53
2019-06-20T01:47:43.713Z,22.07
2019-06-20T01:52:07.634Z,25.90
2019-06-20T01:56:31.466Z,27.67
2019-06-20T02:00:56.785Z,31.30
2019-06-20T02:05:20.844Z,34.07
2019-06-20T02:09:45.802Z,34.40
2019-06-20T02:14:10.169Z,33.70
2019-06-20T02:18:35.119Z,32.47
2019-06-20T02:23:00.127Z,40.10
2019-06-20T02:27:23.886Z,32.53
2019-06-20T02:31:47.794Z,45.97
2019-06-20T02:36:11.653Z,38.85
2019-06-20T02:40:36.783Z,44.97
2019-06-20T02:45:05.050Z,46.93
2019-06-20T02:49:29.435Z,45.55
2019-06-20T02:53:54.807Z,48.03
2019-06-20T02:58:19.665Z,52.13
2019-06-20T03:02:43.921Z,52.33
2019-06-20T03:07:08.085Z,42.23
2019-06-20T03:11:32.726Z,49.43
2019-06-20T03:15:57.289Z,44.90
2019-06-20T03:20:21.703Z,53.07
2019-06-20T03:24:46.052Z,43.03
2019-06-20T03:29:10.755Z,50.33
2019-06-20T03:33:34.478Z,50.43
2019-06-20T03:37:59.114Z,56.33
2019-06-20T03:42:24.368Z,55.20
2019-06-20T03:46:48.279Z,58.50
2019-06-20T03:51:13.608Z,56.33
2019-06-20T03:55:38.005Z,48.07
2019-06-20T04:00:02.627Z,62.30
2019-06-20T04:04:28.111Z,43.07
2019-06-20T04:08:52.790Z,51.70
2019-06-20T04:13:21.902Z,48.83
2019-06-20T04:17:45.944Z,41.60
2019-06-20T04:22:09.829Z,37.90
2019-06-20T04:26:34.459Z,39.93
2019-06-20T04:30:58.876Z,36.90
2019-06-20T04:35:22.573Z,37.95
2019-06-20T04:39:46.294Z,38.73
2019-06-20T04:44:11.066Z,41.33
2019-06-20T04:48:35.083Z,37.10
2019-06-20T04:52:58.796Z,40.93
2019-06-20T04:57:22.542Z,37.95
2019-06-20T05:01:46.386Z,37.57
2019-06-20T05:06:10.176Z,39.60
2019-06-20T05:10:33.962Z,37.87
2019-06-20T05:14:57.725Z,34.57
2019-06-20T05:19:21.408Z,34.40
2019-06-20T05:23:45.105Z,35.83
2019-06-20T05:28:08.792Z,37.30
2019-06-20T05:32:32.490Z,40.93
2019-06-20T05:36:57.429Z,33.80
2019-06-20T05:41:21.112Z,38.73
2019-06-20T05:45:48.559Z,35.10
2019-06-20T05:50:13.310Z,50.03
2019-06-20T05:54:37.014Z,45.00
2019-06-20T05:59:00.973Z,48.80
2019-06-20T06:03:25.949Z,47.73
2019-06-20T06:07:50.901Z,45.33
2019-06-20T06:12:14.596Z,47.20
2019-06-20T06:16:38.271Z,49.90
2019-06-20T06:21:02.536Z,50.90
2019-06-20T06:25:26.229Z,52.43
2019-06-20T06:29:50.196Z,53.50
2019-06-20T06:34:13.873Z,49.77
2019-06-20T06:38:37.743Z,49.87
2019-06-20T06:43:01.444Z,47.17
2019-06-20T06:47:25.517Z,51.93
2019-06-20T06:51:49.306Z,47.67
2019-06-20T06:56:12.984Z,50.00
2019-06-20T07:00:36.742Z,45.00
2019-06-20T07:05:00.448Z,45.37
2019-06-20T07:09:24.170Z,45.93
2019-06-20T07:13:47.866Z,44.97
2019-06-20T07:18:11.538Z,43.67
2019-06-20T07:22:35.270Z,47.23
2019-06-20T07:26:59.031Z,51.10
2019-06-20T07:31:22.733Z,43.13
2019-06-20T07:35:46.588Z,45.20
2019-06-20T07:40:11.120Z,45.98
2019-06-20T07:44:34.885Z,39.50
2019-06-20T07:48:59.325Z,41.17
2019-06-20T07:53:23.136Z,43.33
2019-06-20T07:57:48.448Z,41.27
2019-06-20T08:02:12.282Z,39.20
2019-06-20T08:06:35.972Z,39.27
2019-06-20T08:10:59.726Z,42.03
2019-06-20T08:15:23.594Z,41.30
2019-06-20T08:19:47.355Z,37.13
2019-06-20T08:24:11.217Z,43.97
2019-06-20T08:28:35.931Z,43.30
2019-06-20T08:33:03.544Z,47.60
2019-06-20T08:37:26.190Z,45.93
2019-06-20T08:41:49.871Z,45.17
2019-06-20T08:46:13.566Z,44.93
2019-06-20T08:50:37.659Z,47.57
2019-06-20T08:55:01.361Z,49.10
2019-06-20T08:59:25.094Z,50.33
2019-06-20T09:03:48.827Z,53.33
2019-06-20T09:08:12.599Z,46.80
2019-06-20T09:12:36.358Z,46.00
2019-06-20T09:17:00.752Z,46.33
2019-06-20T09:21:24.765Z,47.33
2019-06-20T09:25:48.730Z,46.90
2019-06-20T09:30:12.994Z,43.53
2019-06-20T09:34:36.650Z,48.47
2019-06-20T09:39:00.787Z,47.20
2019-06-20T09:43:27.789Z,53.97
2019-06-20T09:47:52.201Z,52.70
2019-06-20T09:52:16.077Z,43.60
2019-06-20T09:56:41.315Z,53.07
2019-06-20T10:01:05.092Z,45.67
2019-06-20T10:05:28.793Z,39.13
2019-06-20T10:09:52.559Z,43.20
2019-06-20T10:14:16.718Z,42.23
2019-06-20T10:18:40.401Z,37.07
2019-06-20T10:23:04.930Z,41.23
2019-06-20T10:27:28.757Z,35.93
2019-06-20T10:31:53.165Z,36.17
2019-06-20T10:36:18.158Z,35.03
2019-06-20T10:40:41.923Z,36.77
2019-06-20T10:45:06.671Z,33.40
2019-06-20T10:49:30.826Z,30.97
2019-06-20T10:53:54.802Z,27.47
2019-06-20T10:58:18.735Z,25.23
2019-06-20T11:02:43.394Z,25.23
2019-06-20T11:07:07.679Z,21.20
2019-06-20T11:11:31.436Z,21.03
2019-06-20T11:15:55.457Z,19.60
2019-06-20T11:20:19.683Z,18.52
2019-06-20T11:24:43.571Z,16.50
2019-06-20T11:29:07.326Z,16.57
2019-06-20T11:33:31.015Z,14.47
2019-06-20T11:37:54.718Z,13.97
2019-06-20T11:42:18.428Z,13.97
2019-06-20T11:46:42.667Z,13.60
2019-06-20T11:51:06.552Z,14.27
2019-06-20T11:55:30.383Z,13.67
2019-06-20T11:59:54.081Z,14.63
2019-06-20T12:04:17.779Z,12.77
2019-06-20T12:08:42.412Z,14.03
2019-06-20T12:13:06.128Z,13.83
2019-06-20T12:17:29.881Z,14.43
2019-06-20T12:21:53.563Z,15.30
2019-06-20T12:26:17.396Z,15.88
2019-06-20T12:30:41.598Z,13.67
2019-06-20T12:35:05.976Z,14.17
2019-06-20T12:39:29.829Z,16.33
2019-06-20T12:43:53.508Z,15.00
2019-06-20T12:48:17.285Z,18.02
2019-06-20T12:52:42.506Z,15.13
2019-06-20T12:57:06.327Z,17.10
2019-06-20T13:01:35.841Z,13.15
2019-06-20T13:05:55.797Z,13.87
2019-06-20T13:10:19.979Z,12.80
2019-06-20T13:14:45.563Z,12.90
2019-06-20T13:19:09.026Z,13.40
2019-06-20T13:23:32.944Z,13.47
2019-06-20T13:27:57.058Z,13.03
2019-06-20T13:32:20.989Z,13.87
2019-06-20T13:36:44.769Z,14.57
2019-06-20T13:41:08.390Z,13.77
2019-06-20T13:45:32.146Z,12.43
2019-06-20T13:49:55.828Z,9.28
2019-06-20T13:54:19.593Z,11.70
2019-06-20T13:58:44.738Z,11.37
2019-06-20T14:03:08.822Z,11.50
2019-06-20T14:07:32.578Z,10.07
2019-06-20T14:11:56.327Z,8.90
2019-06-20T14:16:20.091Z,9.27
2019-06-20T14:20:44.887Z,10.97
2019-06-20T14:25:08.777Z,11.73
2019-06-20T14:29:32.475Z,12.03
2019-06-20T14:33:57.129Z,12.83
2019-06-20T14:38:21.113Z,12.15
2019-06-20T14:42:45.969Z,12.17
2019-06-20T14:47:11.114Z,11.90
2019-06-20T14:51:35.086Z,12.57
2019-06-20T14:55:59.009Z,13.77
2019-06-20T15:00:24.578Z,12.58
2019-06-20T15:04:48.250Z,13.07
2019-06-20T15:09:11.949Z,13.83
2019-06-20T15:13:47.675Z,13.80
2019-06-20T15:18:11.887Z,12.73
2019-06-20T15:22:35.730Z,12.93
2019-06-20T15:26:59.417Z,12.83
2019-06-20T15:31:25.252Z,13.47
2019-06-20T15:35:50.642Z,12.07
2019-06-20T15:40:15.669Z,11.10
2019-06-20T15:44:39.354Z,10.57
2019-06-20T15:49:15.329Z,10.47
2019-06-20T15:53:29.977Z,10.80
2019-06-20T15:57:54.352Z,12.53
2019-06-20T16:02:18.221Z,11.50
2019-06-20T16:06:41.873Z,9.50
2019-06-20T16:11:05.628Z,11.47
2019-06-20T16:15:29.361Z,10.70
2019-06-20T16:19:53.283Z,12.20
2019-06-20T16:24:16.983Z,11.97
2019-06-20T16:28:40.669Z,11.87
2019-06-20T16:33:04.804Z,13.00
2019-06-20T16:37:28.813Z,10.70
2019-06-20T16:41:57.341Z,9.80
2019-06-20T16:46:21.014Z,10.08
2019-06-20T16:50:44.707Z,8.83
2019-06-20T16:55:09.063Z,8.13
2019-06-20T16:59:32.731Z,8.90
2019-06-20T17:03:56.412Z,7.97
2019-06-20T17:08:20.411Z,8.70
2019-06-20T17:12:44.201Z,6.10
2019-06-20T17:17:07.991Z,7.67
2019-06-20T17:21:31.631Z,8.70
2019-06-20T17:25:55.442Z,9.47
2019-06-20T17:30:21.103Z,10.70
2019-06-20T17:34:44.798Z,9.30
2019-06-20T17:39:08.992Z,14.57
2019-06-20T17:43:33.142Z,8.73
2019-06-20T17:47:56.962Z,8.10
2019-06-20T17:52:20.672Z,8.73
2019-06-20T17:56:44.513Z,10.90
2019-06-20T18:01:08.240Z,7.80
2019-06-20T18:05:31.989Z,7.87
2019-06-20T18:09:55.685Z,8.03
2019-06-20T18:14:19.430Z,11.23
2019-06-20T18:18:43.224Z,8.23
2019-06-20T18:23:06.893Z,8.80
2019-06-20T18:27:30.667Z,7.67
2019-06-20T18:31:54.329Z,6.97
2019-06-20T18:36:18.017Z,5.17
2019-06-20T18:40:41.761Z,5.50
2019-06-20T18:45:06.285Z,6.70
2019-06-20T18:49:30.044Z,4.70
2019-06-20T18:53:53.727Z,5.83
2019-06-20T18:58:17.402Z,3.75
2019-06-20T19:02:41.505Z,3.57
2019-06-20T19:07:05.254Z,4.00
2019-06-20T19:11:29.160Z,3.80
2019-06-20T19:15:52.858Z,5.63
2019-06-20T19:20:17.869Z,3.90
2019-06-20T19:24:41.578Z,4.20
2019-06-20T19:29:05.421Z,4.03
2019-06-20T19:33:29.221Z,3.97
2019-06-20T19:37:52.892Z,4.23
2019-06-20T19:42:16.604Z,3.60
2019-06-20T19:46:40.595Z,4.43
2019-06-20T19:51:05.160Z,3.98
2019-06-20T19:55:29.008Z,4.47
2019-06-20T19:59:52.748Z,3.87
2019-06-20T20:04:16.555Z,4.83
2019-06-20T20:08:40.304Z,4.90
2019-06-20T20:13:05.298Z,7.47
2019-06-20T20:17:29.011Z,5.33
2019-06-20T20:21:52.645Z,5.00
2019-06-20T20:26:16.311Z,5.13
2019-06-20T20:30:40.067Z,4.37
2019-06-20T20:35:03.756Z,5.10
2019-06-20T20:39:27.428Z,5.63
2019-06-20T20:43:51.342Z,7.53
2019-06-20T20:48:16.022Z,5.23
2019-06-20T20:52:39.699Z,5.77
2019-06-20T20:57:03.527Z,5.40
2019-06-20T21:01:35.169Z,5.57
2019-06-20T21:05:57.695Z,6.90
2019-06-20T21:10:22.905Z,6.33
2019-06-20T21:14:46.581Z,6.50
2019-06-20T21:19:10.273Z,6.03
2019-06-20T21:23:34.040Z,8.00
2019-06-20T21:27:57.722Z,6.00
2019-06-20T21:32:24.974Z,6.50
2019-06-20T21:36:49.072Z,5.90
2019-06-20T21:41:12.755Z,6.13
2019-06-20T21:45:36.562Z,6.47
2019-06-20T21:50:00.242Z,5.67
2019-06-20T21:54:23.923Z,5.80
2019-06-20T21:58:48.875Z,5.90
2019-06-20T22:03:12.872Z,6.63
2019-06-20T22:07:36.534Z,7.10
2019-06-20T22:12:00.217Z,7.50
2019-06-20T22:16:23.967Z,5.90
2019-06-20T22:20:47.901Z,10.97
2019-06-20T22:25:11.827Z,9.13
2019-06-20T22:29:36.649Z,7.80
2019-06-20T22:34:00.411Z,6.63
2019-06-20T22:38:24.128Z,6.20
2019-06-20T22:42:47.807Z,7.27
2019-06-20T22:47:11.523Z,7.43
2019-06-20T22:51:35.187Z,6.63
2019-06-20T22:55:58.853Z,6.97
2019-06-20T23:00:22.897Z,6.03
2019-06-20T23:04:46.577Z,7.97
2019-06-20T23:09:10.391Z,9.17
2019-06-20T23:13:34.395Z,10.17
2019-06-20T23:17:58.472Z,12.43
2019-06-20T23:22:22.165Z,13.90
2019-06-20T23:26:45.926Z,15.00
2019-06-20T23:31:09.648Z,13.97
2019-06-20T23:35:35.095Z,15.80
2019-06-20T23:39:58.787Z,16.07
2019-06-20T23:44:22.487Z,14.90
2019-06-20T23:48:46.367Z,17.30
2019-06-20T23:53:16.241Z,14.60
2019-06-20T23:57:39.930Z,13.47
